createdAt,value
2018-03-03T00:00:18.323Z,57.03
2018-03-03T00:01:18.297Z,56.84
2018-03-03T00:02:18.270Z,56.27
2018-03-03T00:03:18.242Z,56.46
2018-03-03T00:04:18.216Z,55.98
2018-03-03T00:05:18.189Z,56.36
2018-03-03T00:06:18.163Z,56.27
2018-03-03T00:07:18.142Z,56.46
2018-03-03T00:08:18.113Z,56.36
2018-03-03T00:09:18.086Z,56.36
2018-03-03T00:10:18.056Z,56.27
2018-03-03T00:11:18.030Z,56.55
2018-03-03T00:12:18.004Z,56.74
2018-03-03T00:13:17.979Z,56.93
2018-03-03T00:14:17.951Z,56.84
2018-03-03T00:15:17.931Z,56.46
2018-03-03T00:16:17.900Z,56.46
2018-03-03T00:17:17.876Z,56.93
2018-03-03T00:18:17.848Z,56.74
2018-03-03T00:19:17.824Z,56.84
2018-03-03T00:20:17.794Z,57.31
2018-03-03T00:21:17.768Z,57.31
2018-03-03T00:22:17.739Z,57.31
2018-03-03T00:23:17.714Z,57.03
2018-03-03T00:24:17.687Z,56.93
2018-03-03T00:25:17.659Z,56.84
2018-03-03T00:26:17.637Z,56.36
2018-03-03T00:27:17.606Z,56.17
2018-03-03T00:28:17.579Z,55.70
2018-03-03T00:29:17.563Z,55.61
2018-03-03T00:30:17.525Z,55.42
2018-03-03T00:31:17.505Z,55.61
2018-03-03T00:32:17.471Z,56.17
2018-03-03T00:33:17.448Z,56.65
2018-03-03T00:34:17.427Z,56.55
2018-03-03T00:35:17.398Z,56.93
2018-03-03T00:36:17.372Z,56.55
2018-03-03T00:37:17.345Z,56.27
2018-03-03T00:38:17.317Z,56.27
2018-03-03T00:39:17.289Z,55.80
2018-03-03T00:40:17.272Z,56.46
2018-03-03T00:41:17.239Z,56.27
2018-03-03T00:42:17.215Z,56.36
2018-03-03T00:43:17.191Z,56.65
2018-03-03T00:44:17.155Z,56.74
2018-03-03T00:45:17.129Z,57.50
2018-03-03T00:46:17.107Z,57.40
2018-03-03T00:47:17.079Z,57.12
2018-03-03T00:48:17.056Z,57.21
2018-03-03T00:49:17.028Z,57.21
2018-03-03T00:50:16.995Z,57.40
2018-03-03T00:51:16.968Z,57.78
2018-03-03T00:52:16.948Z,57.68
2018-03-03T00:53:16.916Z,57.50
2018-03-03T00:54:16.894Z,57.59
2018-03-03T00:55:16.864Z,57.68
2018-03-03T00:56:16.838Z,57.50
2018-03-03T00:57:16.814Z,57.68
2018-03-03T00:58:16.782Z,57.40
2018-03-03T00:59:16.760Z,58.06
2018-03-03T01:00:16.730Z,57.87
2018-03-03T01:01:16.710Z,57.50
2018-03-03T01:02:16.682Z,58.03
2018-03-03T01:03:16.651Z,57.78
2018-03-03T01:04:16.627Z,58.34
2018-03-03T01:05:16.599Z,58.22
2018-03-03T01:06:16.570Z,58.22
2018-03-03T01:07:16.548Z,58.88
2018-03-03T01:08:16.521Z,58.79
2018-03-03T01:09:16.489Z,58.98
2018-03-03T01:10:16.471Z,58.22
2018-03-03T01:11:16.438Z,58.12
2018-03-03T01:12:16.410Z,58.03
2018-03-03T01:13:16.384Z,58.41
2018-03-03T01:14:16.359Z,58.50
2018-03-03T01:15:16.336Z,58.50
2018-03-03T01:16:16.307Z,58.12
2018-03-03T01:17:16.274Z,58.12
2018-03-03T01:18:16.250Z,58.12
2018-03-03T01:19:16.230Z,58.15
2018-03-03T01:20:16.196Z,58.06
2018-03-03T01:21:16.167Z,58.44
2018-03-03T01:22:16.139Z,58.34
2018-03-03T01:23:16.126Z,58.15
2018-03-03T01:24:16.084Z,57.87
2018-03-03T01:25:16.058Z,58.15
2018-03-03T01:26:16.037Z,57.78
2018-03-03T01:27:16.004Z,57.59
2018-03-03T01:28:15.978Z,57.87
2018-03-03T01:29:15.955Z,57.97
2018-03-03T01:30:15.925Z,58.03
2018-03-03T01:31:15.899Z,58.41
2018-03-03T01:32:15.869Z,58.22
2018-03-03T01:33:15.842Z,58.69
2018-03-03T01:34:15.813Z,58.98
2018-03-03T01:35:15.790Z,59.26
2018-03-03T01:36:15.761Z,59.17
2018-03-03T01:37:15.736Z,59.35
2018-03-03T01:38:15.709Z,59.07
2018-03-03T01:39:15.681Z,59.35
2018-03-03T01:40:15.656Z,58.98
2018-03-03T01:41:15.627Z,59.35
2018-03-03T01:42:15.602Z,59.17
2018-03-03T01:43:15.582Z,59.07
2018-03-03T01:44:15.550Z,59.17
2018-03-03T01:45:15.520Z,59.26
2018-03-03T01:46:15.498Z,59.38
2018-03-03T01:47:15.463Z,58.91
2018-03-03T01:48:15.440Z,58.03
2018-03-03T01:49:15.412Z,58.22
2018-03-03T01:50:15.384Z,58.98
2018-03-03T01:51:15.355Z,59.26
2018-03-03T01:52:15.330Z,58.88
2018-03-03T01:53:15.315Z,58.79
2018-03-03T01:54:15.282Z,58.88
2018-03-03T01:55:15.246Z,59.26
2018-03-03T01:56:15.218Z,58.88
2018-03-03T01:57:15.198Z,59.35
2018-03-03T01:58:15.169Z,59.35
2018-03-03T01:59:15.140Z,59.64
2018-03-03T02:00:15.113Z,59.54
2018-03-03T02:01:15.085Z,59.73
2018-03-03T02:02:15.059Z,59.73
2018-03-03T02:03:15.031Z,59.73
2018-03-03T02:04:15.008Z,59.92
2018-03-03T02:05:14.976Z,59.73
2018-03-03T02:06:14.948Z,59.73
2018-03-03T02:07:14.927Z,59.64
2018-03-03T02:08:14.899Z,59.26
2018-03-03T02:09:14.868Z,59.92
2018-03-03T02:10:14.839Z,60.02
2018-03-03T02:11:14.818Z,59.73
2018-03-03T02:12:14.788Z,60.49
2018-03-03T02:13:14.763Z,59.64
2018-03-03T02:14:14.732Z,59.73
2018-03-03T02:15:14.711Z,60.30
2018-03-03T02:16:14.678Z,60.02
2018-03-03T02:17:14.651Z,60.30
2018-03-03T02:18:14.628Z,60.39
2018-03-03T02:19:14.603Z,60.49
2018-03-03T02:20:14.569Z,60.86
2018-03-03T02:21:14.547Z,60.86
2018-03-03T02:22:14.516Z,60.58
2018-03-03T02:23:14.491Z,60.86
2018-03-03T02:24:14.463Z,60.49
2018-03-03T02:25:14.439Z,60.21
2018-03-03T02:26:14.410Z,59.83
2018-03-03T02:27:14.382Z,59.83
2018-03-03T02:28:14.352Z,60.49
2018-03-03T02:29:14.333Z,60.21
2018-03-03T02:30:14.308Z,60.21
2018-03-03T02:31:14.271Z,60.30
2018-03-03T02:32:14.250Z,59.73
2018-03-03T02:33:14.223Z,60.21
2018-03-03T02:34:14.192Z,60.30
2018-03-03T02:35:14.161Z,60.39
2018-03-03T02:36:14.134Z,60.21
2018-03-03T02:37:14.108Z,61.05
2018-03-03T02:38:14.081Z,60.77
2018-03-03T02:39:14.057Z,60.49
2018-03-03T02:40:14.030Z,60.30
2018-03-03T02:41:14.003Z,60.58
2018-03-03T02:42:13.984Z,60.39
2018-03-03T02:43:13.948Z,60.77
2018-03-03T02:44:13.934Z,60.68
2018-03-03T02:45:13.898Z,61.33
2018-03-03T02:46:13.869Z,60.96
2018-03-03T02:47:13.841Z,60.68
2018-03-03T02:48:13.809Z,60.58
2018-03-03T02:49:13.782Z,60.49
2018-03-03T02:50:13.793Z,60.21
2018-03-03T02:51:13.728Z,60.02
2018-03-03T02:52:13.701Z,60.21
2018-03-03T02:53:13.673Z,59.45
2018-03-03T02:54:13.660Z,59.83
2018-03-03T02:55:13.618Z,59.92
2018-03-03T02:56:13.602Z,59.83
2018-03-03T02:57:13.568Z,59.45
2018-03-03T02:58:13.593Z,59.73
2018-03-03T02:59:13.510Z,60.49
2018-03-03T03:00:13.484Z,59.54
2018-03-03T03:01:13.463Z,60.11
2018-03-03T03:02:13.430Z,60.21
2018-03-03T03:03:13.414Z,60.21
2018-03-03T03:04:13.391Z,59.83
2018-03-03T03:05:13.353Z,60.30
2018-03-03T03:06:13.319Z,60.39
2018-03-03T03:07:13.301Z,60.30
2018-03-03T03:08:13.271Z,60.77
2018-03-03T03:09:13.239Z,60.96
2018-03-03T03:10:13.217Z,60.96
2018-03-03T03:11:13.188Z,60.86
2018-03-03T03:12:13.159Z,60.77
2018-03-03T03:13:13.141Z,60.49
2018-03-03T03:14:13.105Z,60.30
2018-03-03T03:15:13.079Z,60.30
2018-03-03T03:16:13.051Z,60.39
2018-03-03T03:17:13.032Z,60.49
2018-03-03T03:18:12.997Z,60.39
2018-03-03T03:19:12.969Z,60.11
2018-03-03T03:20:12.941Z,60.39
2018-03-03T03:21:12.916Z,60.39
2018-03-03T03:22:12.895Z,60.30
2018-03-03T03:23:12.863Z,60.11
2018-03-03T03:24:12.848Z,59.54
2018-03-03T03:25:12.808Z,59.64
2018-03-03T03:26:12.777Z,60.30
2018-03-03T03:27:12.760Z,60.49
2018-03-03T03:28:12.724Z,60.30
2018-03-03T03:29:12.702Z,60.11
2018-03-03T03:30:12.671Z,59.54
2018-03-03T03:31:12.701Z,59.73
2018-03-03T03:32:12.620Z,60.02
2018-03-03T03:33:12.594Z,59.92
2018-03-03T03:34:12.564Z,59.83
2018-03-03T03:35:12.539Z,59.83
2018-03-03T03:36:12.514Z,60.49
2018-03-03T03:37:12.479Z,59.64
2018-03-03T03:38:12.457Z,59.54
2018-03-03T03:39:12.430Z,59.64
2018-03-03T03:40:12.403Z,59.17
2018-03-03T03:41:12.372Z,59.73
2018-03-03T03:42:12.343Z,59.73
2018-03-03T03:43:12.320Z,59.64
2018-03-03T03:44:12.290Z,59.73
2018-03-03T03:45:12.266Z,60.11
2018-03-03T03:46:12.237Z,59.92
2018-03-03T03:47:12.210Z,59.76
2018-03-03T03:48:12.179Z,59.92
2018-03-03T03:49:12.154Z,59.54
2018-03-03T03:50:12.127Z,59.67
2018-03-03T03:51:12.101Z,59.19
2018-03-03T03:52:12.072Z,59.17
2018-03-03T03:53:12.048Z,59.26
2018-03-03T03:54:12.023Z,59.73
2018-03-03T03:55:11.991Z,59.83
2018-03-03T03:56:11.967Z,60.39
2018-03-03T03:57:11.934Z,59.92
2018-03-03T03:58:11.910Z,59.64
2018-03-03T03:59:11.882Z,59.57
2018-03-03T04:00:11.862Z,59.73
2018-03-03T04:01:11.829Z,59.57
2018-03-03T04:02:11.802Z,59.95
2018-03-03T04:03:11.780Z,58.91
2018-03-03T04:04:11.780Z,58.91
2018-03-03T04:05:11.716Z,59.26
2018-03-03T04:06:11.691Z,59.92
2018-03-03T04:07:11.670Z,59.64
2018-03-03T04:08:11.636Z,60.02
2018-03-03T04:09:11.610Z,59.73
2018-03-03T04:10:11.580Z,59.54
2018-03-03T04:11:11.554Z,59.76
2018-03-03T04:12:11.531Z,60.24
2018-03-03T04:13:11.503Z,59.86
2018-03-03T04:14:11.474Z,59.76
2018-03-03T04:15:11.449Z,59.38
2018-03-03T04:16:11.430Z,59.10
2018-03-03T04:17:11.392Z,59.17
2018-03-03T04:18:11.366Z,59.67
2018-03-03T04:19:11.343Z,59.54
2018-03-03T04:20:11.314Z,59.92
2018-03-03T04:21:11.286Z,59.54
2018-03-03T04:22:11.256Z,59.64
2018-03-03T04:23:11.233Z,60.21
2018-03-03T04:24:11.199Z,60.02
2018-03-03T04:25:11.177Z,60.24
2018-03-03T04:26:11.145Z,60.11
2018-03-03T04:27:11.119Z,60.05
2018-03-03T04:28:11.098Z,60.14
2018-03-03T04:29:11.071Z,60.05
2018-03-03T04:30:11.042Z,59.95
2018-03-03T04:31:11.010Z,59.86
2018-03-03T04:32:10.990Z,59.64
2018-03-03T04:33:10.961Z,59.73
2018-03-03T04:34:10.930Z,59.54
2018-03-03T04:35:10.922Z,59.73
2018-03-03T04:36:10.877Z,59.92
2018-03-03T04:37:10.849Z,59.73
2018-03-03T04:38:10.820Z,59.73
2018-03-03T04:39:10.795Z,60.11
2018-03-03T04:40:10.770Z,60.77
2018-03-03T04:41:10.742Z,60.58
2018-03-03T04:42:10.717Z,60.30
2018-03-03T04:43:10.691Z,60.49
2018-03-03T04:44:10.662Z,60.30
2018-03-03T04:45:10.631Z,60.02
2018-03-03T04:46:10.606Z,60.30
2018-03-03T04:47:10.583Z,60.49
2018-03-03T04:48:10.551Z,60.42
2018-03-03T04:49:10.528Z,60.61
2018-03-03T04:50:10.495Z,60.42
2018-03-03T04:51:10.468Z,60.33
2018-03-03T04:52:10.443Z,59.95
2018-03-03T04:53:10.415Z,59.76
2018-03-03T04:54:10.386Z,59.76
2018-03-03T04:55:10.357Z,59.67
2018-03-03T04:56:10.334Z,60.24
2018-03-03T04:57:10.306Z,59.48
2018-03-03T04:58:10.279Z,60.33
2018-03-03T04:59:10.250Z,59.95
2018-03-03T05:00:10.226Z,59.86
2018-03-03T05:01:10.200Z,59.57
2018-03-03T05:02:10.171Z,59.38
2018-03-03T05:03:10.145Z,59.29
2018-03-03T05:04:10.116Z,59.10
2018-03-03T05:05:10.089Z,59.00
2018-03-03T05:06:10.063Z,59.38
2018-03-03T05:07:10.035Z,59.57
2018-03-03T05:08:10.013Z,59.07
2018-03-03T05:09:09.987Z,59.45
2018-03-03T05:10:09.959Z,60.30
2018-03-03T05:11:09.931Z,60.86
2018-03-03T05:12:09.906Z,60.61
2018-03-03T05:13:09.876Z,60.61
2018-03-03T05:14:09.901Z,60.33
2018-03-03T05:15:09.819Z,60.33
2018-03-03T05:16:09.799Z,60.24
2018-03-03T05:17:09.766Z,59.48
2018-03-03T05:18:09.741Z,60.05
2018-03-03T05:19:09.765Z,59.95
2018-03-03T05:20:09.689Z,60.33
2018-03-03T05:21:09.665Z,59.86
2018-03-03T05:22:09.635Z,60.14
2018-03-03T05:23:09.670Z,60.24
2018-03-03T05:24:09.585Z,60.05
2018-03-03T05:25:09.564Z,59.95
2018-03-03T05:26:09.525Z,60.33
2018-03-03T05:27:09.502Z,59.95
2018-03-03T05:28:09.475Z,59.86
2018-03-03T05:29:09.451Z,59.95
2018-03-03T05:30:09.421Z,59.86
2018-03-03T05:31:09.399Z,59.76
2018-03-03T05:32:09.371Z,59.95
2018-03-03T05:33:09.340Z,60.05
2018-03-03T05:34:09.312Z,59.76
2018-03-03T05:35:09.287Z,59.76
2018-03-03T05:36:09.260Z,60.05
2018-03-03T05:37:09.229Z,60.77
2018-03-03T05:38:09.202Z,61.08
2018-03-03T05:39:09.179Z,61.65
2018-03-03T05:40:09.149Z,60.61
2018-03-03T05:41:09.127Z,60.52
2018-03-03T05:42:09.101Z,60.33
2018-03-03T05:43:09.070Z,60.33
2018-03-03T05:44:09.052Z,60.24
2018-03-03T05:45:09.020Z,60.89
2018-03-03T05:46:08.991Z,60.80
2018-03-03T05:47:08.963Z,61.18
2018-03-03T05:48:08.934Z,60.99
2018-03-03T05:49:08.913Z,60.89
2018-03-03T05:50:08.881Z,60.71
2018-03-03T05:51:08.854Z,61.08
2018-03-03T05:52:08.826Z,60.80
2018-03-03T05:53:08.810Z,60.52
2018-03-03T05:54:08.775Z,60.61
2018-03-03T05:55:08.749Z,60.89
2018-03-03T05:56:08.720Z,60.61
2018-03-03T05:57:08.701Z,61.18
2018-03-03T05:58:08.666Z,61.24
2018-03-03T05:59:08.646Z,61.61
2018-03-03T06:00:08.620Z,61.71
2018-03-03T06:01:08.588Z,61.80
2018-03-03T06:02:08.572Z,62.56
2018-03-03T06:03:08.530Z,62.37
2018-03-03T06:04:08.503Z,62.47
2018-03-03T06:05:08.481Z,62.47
2018-03-03T06:06:08.453Z,62.09
2018-03-03T06:07:08.420Z,62.66
2018-03-03T06:08:08.397Z,62.75
2018-03-03T06:09:08.369Z,62.94
2018-03-03T06:10:08.342Z,62.94
2018-03-03T06:11:08.313Z,62.94
2018-03-03T06:12:08.284Z,62.94
2018-03-03T06:13:08.261Z,62.56
2018-03-03T06:14:08.232Z,62.66
2018-03-03T06:15:08.206Z,62.56
2018-03-03T06:16:08.180Z,62.28
2018-03-03T06:17:08.152Z,62.09
2018-03-03T06:18:08.129Z,62.66
2018-03-03T06:19:08.100Z,62.40
2018-03-03T06:20:08.069Z,62.37
2018-03-03T06:21:08.043Z,62.37
2018-03-03T06:22:08.067Z,62.47
2018-03-03T06:23:08.026Z,62.28
2018-03-03T06:24:07.965Z,62.37
2018-03-03T06:25:07.934Z,63.41
2018-03-03T06:26:08.010Z,63.13
2018-03-03T06:27:07.879Z,63.41
2018-03-03T06:28:07.956Z,62.97
2018-03-03T06:29:07.830Z,62.56
2018-03-03T06:30:07.860Z,63.03
2018-03-03T06:31:07.774Z,62.59
2018-03-03T06:32:07.744Z,62.21
2018-03-03T06:33:07.720Z,62.59
2018-03-03T06:34:07.701Z,62.50
2018-03-03T06:35:07.669Z,62.59
2018-03-03T06:36:07.636Z,61.84
2018-03-03T06:37:07.610Z,61.36
2018-03-03T06:38:07.580Z,61.27
2018-03-03T06:39:07.560Z,61.27
2018-03-03T06:40:07.526Z,61.46
2018-03-03T06:41:07.511Z,62.02
2018-03-03T06:42:07.480Z,62.02
2018-03-03T06:43:07.448Z,62.59
2018-03-03T06:44:07.421Z,61.74
2018-03-03T06:45:07.396Z,62.21
2018-03-03T06:46:07.366Z,62.59
2018-03-03T06:47:07.350Z,62.59
2018-03-03T06:48:07.314Z,62.21
2018-03-03T06:49:07.288Z,62.40
2018-03-03T06:50:07.263Z,61.84
2018-03-03T06:51:07.237Z,61.46
2018-03-03T06:52:07.210Z,61.55
2018-03-03T06:53:07.187Z,61.27
2018-03-03T06:54:07.163Z,61.46
2018-03-03T06:55:07.131Z,61.65
2018-03-03T06:56:07.105Z,60.80
2018-03-03T06:57:07.076Z,60.71
2018-03-03T06:58:07.051Z,60.42
2018-03-03T06:59:07.032Z,60.52
2018-03-03T07:00:07.005Z,60.61
2018-03-03T07:01:06.981Z,60.89
2018-03-03T07:02:06.948Z,60.89
2018-03-03T07:03:06.915Z,60.89
2018-03-03T07:04:06.893Z,60.89
2018-03-03T07:05:06.870Z,61.36
2018-03-03T07:06:06.841Z,61.55
2018-03-03T07:07:06.821Z,60.71
2018-03-03T07:08:06.789Z,60.52
2018-03-03T07:09:06.765Z,60.80
2018-03-03T07:10:06.739Z,60.52
2018-03-03T07:11:06.723Z,60.80
2018-03-03T07:12:06.689Z,60.80
2018-03-03T07:13:06.660Z,61.46
2018-03-03T07:14:06.639Z,61.36
2018-03-03T07:15:06.611Z,61.36
2018-03-03T07:16:06.593Z,61.46
2018-03-03T07:17:06.560Z,61.46
2018-03-03T07:18:06.542Z,60.80
2018-03-03T07:19:06.510Z,60.80
2018-03-03T07:20:06.482Z,60.52
2018-03-03T07:21:06.459Z,60.52
2018-03-03T07:22:06.429Z,59.95
2018-03-03T07:23:06.406Z,59.86
2018-03-03T07:24:06.385Z,59.22
2018-03-03T07:25:06.410Z,58.84
2018-03-03T07:26:06.335Z,58.18
2018-03-03T07:27:06.326Z,57.81
2018-03-03T07:28:06.286Z,58.56
2018-03-03T07:29:06.264Z,58.18
2018-03-03T07:30:06.242Z,57.71
2018-03-03T07:31:06.221Z,57.24
2018-03-03T07:32:06.193Z,57.53
2018-03-03T07:33:06.167Z,56.96
2018-03-03T07:34:06.149Z,56.30
2018-03-03T07:35:06.123Z,56.58
2018-03-03T07:36:06.118Z,57.50
2018-03-03T07:37:06.079Z,58.25
2018-03-03T07:38:06.060Z,58.72
2018-03-03T07:39:06.033Z,59.29
2018-03-03T07:40:06.001Z,59.10
2018-03-03T07:41:05.980Z,58.94
2018-03-03T07:42:06.362Z,57.34
2018-03-03T07:43:05.943Z,56.42
2018-03-03T07:44:05.909Z,55.00
2018-03-03T07:45:05.890Z,54.15
2018-03-03T07:46:05.874Z,53.49
2018-03-03T07:47:05.842Z,53.14
2018-03-03T07:48:05.829Z,51.81
2018-03-03T07:49:05.803Z,50.68
2018-03-03T07:50:05.788Z,50.33
2018-03-03T07:51:05.760Z,50.21
2018-03-03T07:52:05.739Z,49.10
2018-03-03T07:53:05.719Z,48.50
2018-03-03T07:54:05.698Z,49.10
2018-03-03T07:55:05.677Z,48.82
2018-03-03T07:56:05.658Z,47.80
2018-03-03T07:57:05.640Z,47.20
2018-03-03T07:58:05.624Z,46.85
2018-03-03T07:59:05.606Z,46.09
2018-03-03T08:00:05.582Z,46.19
2018-03-03T08:01:05.566Z,45.74
2018-03-03T08:02:05.543Z,45.05
2018-03-03T08:03:05.527Z,44.77
2018-03-03T08:04:05.509Z,45.15
2018-03-03T08:05:05.492Z,45.05
2018-03-03T08:06:05.483Z,44.70
2018-03-03T08:07:05.458Z,44.20
2018-03-03T08:08:05.441Z,44.58
2018-03-03T08:09:05.424Z,45.12
2018-03-03T08:10:05.410Z,45.43
2018-03-03T08:11:05.386Z,45.24
2018-03-03T08:12:05.380Z,45.36
2018-03-03T08:13:05.357Z,44.77
2018-03-03T08:14:05.337Z,44.86
2018-03-03T08:15:05.321Z,44.77
2018-03-03T08:16:05.308Z,43.94
2018-03-03T08:17:05.285Z,43.46
2018-03-03T08:18:05.270Z,43.44
2018-03-03T08:19:05.258Z,43.82
2018-03-03T08:20:05.235Z,44.20
2018-03-03T08:21:05.220Z,44.01
2018-03-03T08:22:05.203Z,44.03
2018-03-03T08:23:05.187Z,43.82
2018-03-03T08:24:05.176Z,44.13
2018-03-03T08:25:05.259Z,43.49
2018-03-03T08:26:05.140Z,41.80
2018-03-03T08:27:05.169Z,40.69
2018-03-03T08:28:05.107Z,39.53
2018-03-03T08:29:05.100Z,39.70
2018-03-03T08:30:05.079Z,39.98
2018-03-03T08:31:05.070Z,40.47
2018-03-03T08:32:05.046Z,39.92
2018-03-03T08:33:05.070Z,39.09
2018-03-03T08:34:05.020Z,37.48
2018-03-03T08:35:05.060Z,36.15
2018-03-03T08:36:04.988Z,36.24
2018-03-03T08:37:04.980Z,35.85
2018-03-03T08:38:04.964Z,36.99
2018-03-03T08:39:04.999Z,38.09
2018-03-03T08:40:04.937Z,38.77
2018-03-03T08:41:04.927Z,39.60
2018-03-03T08:42:04.910Z,39.98
2018-03-03T08:43:04.901Z,40.44
2018-03-03T08:44:04.881Z,41.31
2018-03-03T08:45:04.922Z,41.31
2018-03-03T08:46:04.861Z,40.55
2018-03-03T08:47:04.840Z,40.36
2018-03-03T08:48:04.829Z,40.17
2018-03-03T08:49:04.812Z,40.55
2018-03-03T08:50:04.797Z,40.38
2018-03-03T08:51:04.790Z,39.53
2018-03-03T08:52:04.772Z,39.34
2018-03-03T08:53:04.759Z,38.86
2018-03-03T08:54:04.751Z,38.58
2018-03-03T08:55:04.731Z,38.67
2018-03-03T08:56:04.718Z,38.86
2018-03-03T08:57:04.708Z,39.43
2018-03-03T08:58:04.692Z,39.62
2018-03-03T08:59:04.683Z,39.26
2018-03-03T09:00:04.670Z,38.62
2018-03-03T09:01:04.647Z,37.50
2018-03-03T09:02:04.633Z,35.85
2018-03-03T09:03:04.622Z,36.97
2018-03-03T09:04:04.609Z,38.18
2018-03-03T09:05:04.607Z,39.79
2018-03-03T09:06:04.589Z,40.09
2018-03-03T09:07:04.568Z,39.81
2018-03-03T09:08:04.557Z,39.92
2018-03-03T09:09:04.541Z,39.00
2018-03-03T09:10:04.525Z,37.57
2018-03-03T09:11:04.510Z,37.38
2018-03-03T09:12:04.493Z,37.01
2018-03-03T09:13:04.483Z,36.34
2018-03-03T09:14:04.471Z,35.96
2018-03-03T09:15:04.454Z,36.15
2018-03-03T09:16:04.439Z,35.86
2018-03-03T09:17:04.430Z,35.96
2018-03-03T09:18:04.421Z,35.79
2018-03-03T09:19:04.402Z,35.52
2018-03-03T09:20:04.400Z,35.03
2018-03-03T09:21:04.389Z,34.94
2018-03-03T09:22:04.362Z,35.68
2018-03-03T09:23:04.352Z,35.96
2018-03-03T09:24:04.340Z,35.88
2018-03-03T09:25:04.326Z,35.49
2018-03-03T09:26:04.314Z,35.77
2018-03-03T09:27:04.301Z,35.86
2018-03-03T09:28:04.299Z,35.88
2018-03-03T09:29:04.289Z,35.77
2018-03-03T09:30:04.271Z,36.15
2018-03-03T09:31:04.251Z,36.72
2018-03-03T09:32:04.235Z,36.09
2018-03-03T09:33:04.225Z,35.50
2018-03-03T09:34:04.215Z,35.49
2018-03-03T09:35:04.202Z,36.05
2018-03-03T09:36:04.189Z,36.15
2018-03-03T09:37:04.178Z,36.91
2018-03-03T09:38:04.161Z,36.63
2018-03-03T09:39:04.143Z,36.51
2018-03-03T09:40:04.132Z,37.57
2018-03-03T09:41:04.122Z,37.29
2018-03-03T09:42:04.107Z,37.40
2018-03-03T09:43:04.094Z,36.26
2018-03-03T09:44:04.077Z,36.05
2018-03-03T09:45:04.072Z,36.24
2018-03-03T09:46:04.052Z,36.24
2018-03-03T09:47:04.039Z,36.55
2018-03-03T09:48:04.027Z,36.63
2018-03-03T09:49:04.017Z,37.46
2018-03-03T09:50:04.008Z,38.12
2018-03-03T09:51:03.990Z,39.17
2018-03-03T09:52:03.971Z,38.79
2018-03-03T09:53:03.957Z,38.33
2018-03-03T09:54:03.942Z,38.53
2018-03-03T09:55:03.930Z,37.57
2018-03-03T09:56:03.914Z,37.29
2018-03-03T09:57:03.900Z,37.02
2018-03-03T09:58:03.880Z,37.01
2018-03-03T09:59:03.870Z,36.93
2018-03-03T10:00:03.855Z,37.01
2018-03-03T10:01:03.844Z,37.19
2018-03-03T10:02:06.289Z,37.19
2018-03-03T10:03:03.821Z,36.94
2018-03-03T10:04:03.911Z,36.28
2018-03-03T10:05:03.780Z,36.00
2018-03-03T10:06:03.766Z,35.24
2018-03-03T10:07:03.761Z,35.13
2018-03-03T10:08:03.742Z,35.50
2018-03-03T10:09:03.733Z,36.26
2018-03-03T10:10:03.755Z,36.24
2018-03-03T10:11:03.692Z,37.01
2018-03-03T10:12:03.688Z,37.48
2018-03-03T10:13:03.674Z,37.10
2018-03-03T10:14:03.660Z,37.67
2018-03-03T10:15:03.660Z,37.88
2018-03-03T10:16:03.672Z,37.78
2018-03-03T10:17:03.605Z,37.29
2018-03-03T10:18:03.597Z,38.50
2018-03-03T10:19:03.580Z,38.33
2018-03-03T10:20:03.561Z,38.89
2018-03-03T10:21:03.555Z,39.47
2018-03-03T10:22:03.532Z,39.64
2018-03-03T10:23:03.518Z,39.73
2018-03-03T10:24:03.496Z,39.64
2018-03-03T10:25:03.480Z,39.47
2018-03-03T10:26:03.460Z,39.64
2018-03-03T10:27:03.447Z,39.36
2018-03-03T10:28:03.432Z,39.66
2018-03-03T10:29:03.414Z,39.21
2018-03-03T10:30:03.397Z,38.26
2018-03-03T10:31:03.380Z,37.48
2018-03-03T10:32:03.365Z,38.03
2018-03-03T10:33:03.370Z,39.36
2018-03-03T10:34:03.328Z,40.12
2018-03-03T10:35:03.316Z,40.85
2018-03-03T10:36:03.300Z,41.59
2018-03-03T10:37:03.280Z,42.33
2018-03-03T10:38:03.266Z,43.75
2018-03-03T10:39:03.248Z,44.91
2018-03-03T10:40:03.227Z,45.17
2018-03-03T10:41:03.207Z,45.55
2018-03-03T10:42:03.197Z,45.74
2018-03-03T10:43:03.171Z,46.12
2018-03-03T10:44:03.160Z,46.69
2018-03-03T10:45:03.132Z,47.04
2018-03-03T10:46:03.119Z,47.89
2018-03-03T10:47:03.099Z,48.84
2018-03-03T10:48:03.080Z,49.60
2018-03-03T10:49:03.063Z,50.33
2018-03-03T10:50:03.040Z,49.98
2018-03-03T10:51:03.012Z,50.07
2018-03-03T10:52:02.994Z,49.79
2018-03-03T10:53:02.981Z,50.54
2018-03-03T10:54:02.960Z,50.35
2018-03-03T10:55:02.931Z,49.98
2018-03-03T10:56:02.924Z,49.88
2018-03-03T10:57:02.923Z,49.98
2018-03-03T10:58:02.878Z,50.07
2018-03-03T10:59:02.849Z,50.35
2018-03-03T11:00:02.830Z,50.45
2018-03-03T11:01:02.813Z,50.26
2018-03-03T11:02:02.796Z,50.35
2018-03-03T11:03:02.762Z,50.16
2018-03-03T11:04:02.778Z,50.54
2018-03-03T11:05:02.719Z,50.26
2018-03-03T11:06:02.696Z,50.45
2018-03-03T11:07:02.680Z,50.73
2018-03-03T11:08:02.665Z,50.35
2018-03-03T11:09:02.638Z,50.45
2018-03-03T11:10:02.612Z,50.45
2018-03-03T11:11:02.590Z,49.79
2018-03-03T11:12:02.566Z,50.26
2018-03-03T11:13:02.556Z,50.16
2018-03-03T11:14:02.523Z,50.73
2018-03-03T11:15:02.519Z,50.99
2018-03-03T11:16:02.485Z,51.58
2018-03-03T11:17:02.505Z,51.58
2018-03-03T11:18:02.441Z,51.18
2018-03-03T11:19:02.432Z,51.75
2018-03-03T11:20:02.399Z,52.12
2018-03-03T11:21:02.373Z,52.60
2018-03-03T11:22:02.349Z,52.41
2018-03-03T11:23:02.335Z,52.41
2018-03-03T11:24:02.362Z,52.60
2018-03-03T11:25:02.290Z,52.60
2018-03-03T11:26:02.273Z,52.60
2018-03-03T11:27:02.241Z,52.22
2018-03-03T11:28:02.221Z,52.44
2018-03-03T11:29:02.196Z,51.96
2018-03-03T11:30:02.182Z,51.30
2018-03-03T11:31:02.156Z,51.39
2018-03-03T11:32:02.179Z,52.53
2018-03-03T11:33:02.113Z,52.06
2018-03-03T11:34:02.133Z,51.49
2018-03-03T11:35:02.064Z,51.30
2018-03-03T11:36:02.040Z,50.47
2018-03-03T11:37:02.023Z,50.28
2018-03-03T11:38:02.038Z,49.33
2018-03-03T11:39:01.969Z,49.31
2018-03-03T11:40:02.049Z,49.88
2018-03-03T11:41:01.934Z,49.98
2018-03-03T11:42:01.955Z,50.09
2018-03-03T11:43:01.889Z,49.90
2018-03-03T11:44:01.868Z,49.62
2018-03-03T11:45:01.839Z,49.43
2018-03-03T11:46:01.923Z,49.33
2018-03-03T11:47:01.803Z,48.96
2018-03-03T11:48:01.828Z,49.15
2018-03-03T11:49:01.756Z,49.05
2018-03-03T11:50:01.782Z,49.05
2018-03-03T11:51:01.717Z,49.41
2018-03-03T11:52:01.691Z,49.90
2018-03-03T11:53:01.706Z,48.96
2018-03-03T11:54:01.755Z,49.24
2018-03-03T11:55:01.624Z,49.50
2018-03-03T11:56:01.650Z,49.71
2018-03-03T11:57:01.582Z,50.28
2018-03-03T11:58:01.553Z,50.38
2018-03-03T11:59:01.535Z,49.41
2018-03-03T12:00:01.520Z,50.38
2018-03-03T12:01:01.489Z,49.52
2018-03-03T12:02:01.478Z,49.43
2018-03-03T12:03:01.467Z,49.71
2018-03-03T12:04:01.425Z,50.00
2018-03-03T12:05:01.406Z,50.19
2018-03-03T12:06:01.380Z,49.81
2018-03-03T12:07:01.357Z,50.00
2018-03-03T12:08:01.342Z,49.90
2018-03-03T12:09:01.316Z,49.90
2018-03-03T12:10:01.296Z,49.81
2018-03-03T12:11:01.269Z,49.90
2018-03-03T12:12:01.254Z,50.38
2018-03-03T12:13:01.231Z,50.00
2018-03-03T12:14:01.209Z,49.05
2018-03-03T12:15:01.204Z,48.77
2018-03-03T12:16:01.174Z,48.84
2018-03-03T12:17:01.145Z,49.43
2018-03-03T12:18:01.119Z,49.81
2018-03-03T12:19:01.096Z,49.81
2018-03-03T12:20:01.073Z,50.45
2018-03-03T12:21:01.054Z,50.28
2018-03-03T12:22:01.035Z,50.28
2018-03-03T12:23:01.010Z,50.66
2018-03-03T12:24:00.993Z,50.38
2018-03-03T12:25:00.965Z,50.76
2018-03-03T12:26:00.942Z,50.57
2018-03-03T12:27:00.933Z,50.38
2018-03-03T12:28:00.902Z,50.09
2018-03-03T12:29:00.880Z,50.38
2018-03-03T12:30:00.857Z,50.00
2018-03-03T12:31:00.838Z,50.00
2018-03-03T12:32:00.817Z,49.62
2018-03-03T12:33:00.800Z,50.09
2018-03-03T12:34:00.770Z,49.90
2018-03-03T12:35:00.747Z,50.28
2018-03-03T12:36:00.722Z,50.38
2018-03-03T12:37:00.704Z,50.82
2018-03-03T12:38:00.688Z,51.11
2018-03-03T12:39:00.658Z,51.49
2018-03-03T12:40:00.638Z,51.77
2018-03-03T12:41:00.620Z,51.77
2018-03-03T12:42:00.593Z,51.96
2018-03-03T12:43:00.577Z,51.58
2018-03-03T12:44:00.562Z,51.96
2018-03-03T12:45:00.535Z,51.96
2018-03-03T12:46:00.503Z,51.77
2018-03-03T12:47:00.480Z,51.77
2018-03-03T12:48:00.458Z,51.96
2018-03-03T12:49:00.446Z,51.87
2018-03-03T12:50:00.416Z,52.15
2018-03-03T12:51:00.399Z,52.44
2018-03-03T12:52:00.370Z,53.00